Time;durP1;ratioP1;P1;durP2;ratioP2;P2;SDS_P1;SDS_P2;PMS_P1;PMS_P2;Temp;Humidity;BMP_temperature;BMP_pressure;BME280_temperature;BME280_humidity;BME280_pressure;Samples;Min_cycle;Max_cycle;Signal;HPM_P1;HPM_P2
2023/06/05 04:32:56;;;;;;;7.15;3.47;;;16.40;63.80;;;;;;4909731;29;20059;-75
2023/06/05 04:35:22;;;;;;;9.93;3.63;;;16.40;63.70;;;;;;4880837;29;20121;-75
2023/06/05 04:37:48;;;;;;;6.18;2.83;;;16.50;63.50;;;;;;4880923;29;20124;-75
2023/06/05 04:40:17;;;;;;;8.23;3.22;;;16.40;63.50;;;;;;4902222;29;20443;-76
2023/06/05 04:42:42;;;;;;;9.82;3.17;;;16.40;63.00;;;;;;4920540;29;20020;-75
2023/06/05 04:45:08;;;;;;;6.10;2.92;;;16.40;63.30;;;;;;4929624;29;20115;-75
2023/06/05 04:47:34;;;;;;;8.63;3.28;;;16.30;63.60;;;;;;4916658;29;20477;-76
2023/06/05 04:50:06;;;;;;;8.82;3.10;;;16.30;64.00;;;;;;4914596;29;20127;-77
2023/06/05 04:52:32;;;;;;;6.35;3.17;;;16.20;64.30;;;;;;4916910;29;20032;-77
2023/06/05 04:55:01;;;;;;;7.00;2.80;;;16.10;64.60;;;;;;4916803;29;20059;-76
2023/06/05 04:57:27;;;;;;;8.75;3.95;;;16.00;64.80;;;;;;4899426;29;20066;-77
2023/06/05 04:59:53;;;;;;;8.23;3.58;;;16.00;65.10;;;;;;4915739;29;20043;-78
2023/06/05 05:02:20;;;;;;;6.20;2.75;;;16.00;65.30;;;;;;4911320;29;20067;-79
2023/06/05 05:04:45;;;;;;;7.00;3.17;;;16.10;65.30;;;;;;4916154;29;20079;-79
2023/06/05 05:07:15;;;;;;;8.65;3.67;;;16.20;64.70;;;;;;4919034;29;20029;-82
2023/06/05 05:09:42;;;;;;;8.35;2.90;;;16.20;64.50;;;;;;4920028;29;20040;-86
2023/06/05 05:12:07;;;;;;;9.48;3.03;;;16.30;64.00;;;;;;4914464;29;20035;-79
2023/06/05 05:14:33;;;;;;;6.20;3.50;;;16.30;64.00;;;;;;4899739;29;20032;-79
2023/06/05 05:17:01;;;;;;;6.40;2.95;;;16.30;64.00;;;;;;4900873;29;20407;-76
2023/06/05 05:19:27;;;;;;;7.68;3.00;;;16.40;63.80;;;;;;4906062;29;20028;-79
2023/06/05 05:21:52;;;;;;;7.47;2.70;;;16.50;63.50;;;;;;4902573;29;20777;-82
2023/06/05 05:24:18;;;;;;;7.07;3.00;;;16.50;63.50;;;;;;4919543;29;20024;-77
2023/06/05 05:26:44;;;;;;;7.60;3.03;;;16.50;63.90;;;;;;4918497;29;20028;-79
2023/06/05 05:29:09;;;;;;;7.93;3.25;;;16.40;63.80;;;;;;4918725;29;20032;-79
2023/06/05 05:31:35;;;;;;;7.00;2.65;;;16.50;63.90;;;;;;4919702;29;20064;-78
2023/06/05 05:34:01;;;;;;;9.80;3.00;;;16.40;64.10;;;;;;4918586;29;20044;-81
2023/06/05 05:36:27;;;;;;;4.47;2.83;;;16.40;64.00;;;;;;4919841;29;20023;-79
2023/06/05 05:38:56;;;;;;;12.25;3.15;;;16.50;64.30;;;;;;4916266;29;20064;-82
2023/06/05 05:41:21;;;;;;;8.43;3.08;;;16.50;63.70;;;;;;4918916;29;20621;-81
2023/06/05 05:43:47;;;;;;;7.68;3.03;;;16.60;63.70;;;;;;4918247;29;20039;-81
2023/06/05 05:46:13;;;;;;;7.20;2.92;;;16.60;63.70;;;;;;4917478;29;20032;-81
2023/06/05 05:48:39;;;;;;;7.07;3.00;;;16.70;63.70;;;;;;4919279;29;20028;-82
2023/06/05 05:51:06;;;;;;;7.05;2.90;;;16.70;63.70;;;;;;4917820;29;20040;-81
2023/06/05 05:53:32;;;;;;;5.65;2.70;;;16.70;63.50;;;;;;4918498;29;20032;-81
2023/06/05 05:55:59;;;;;;;7.18;2.80;;;16.70;63.50;;;;;;4900399;29;20090;-82
2023/06/05 05:58:24;;;;;;;7.70;2.72;;;16.70;63.30;;;;;;4899733;29;20044;-83
2023/06/05 06:00:50;;;;;;;7.28;3.17;;;16.80;63.70;;;;;;4895337;29;20044;-83
2023/06/05 06:03:19;;;;;;;9.30;2.70;;;16.80;63.60;;;;;;4926771;29;20692;-83
2023/06/05 06:05:44;;;;;;;7.85;2.78;;;16.80;63.50;;;;;;4918250;29;20032;-83
2023/06/05 06:08:11;;;;;;;8.20;2.83;;;16.80;63.50;;;;;;4934459;29;20023;-82
2023/06/05 06:10:37;;;;;;;9.07;2.65;;;16.80;63.40;;;;;;4933702;29;20024;-82
2023/06/05 06:13:04;;;;;;;7.38;3.00;;;16.90;63.40;;;;;;4935381;29;20032;-82
2023/06/05 06:15:30;;;;;;;9.90;3.10;;;16.90;63.20;;;;;;4921135;29;20031;-82
2023/06/05 06:17:56;;;;;;;6.97;2.90;;;17.00;63.10;;;;;;4924677;29;20071;-82
2023/06/05 06:20:22;;;;;;;7.20;2.60;;;17.00;63.10;;;;;;4920782;29;20024;-82
2023/06/05 06:22:48;;;;;;;6.90;2.78;;;17.10;62.50;;;;;;4900107;29;20427;-82
2023/06/05 06:25:15;;;;;;;6.43;2.75;;;17.20;62.30;;;;;;4918421;29;20098;-82
2023/06/05 06:27:48;;;;;;;7.72;2.80;;;17.20;62.50;;;;;;4901880;29;20032;-82
2023/06/05 06:30:15;;;;;;;7.13;2.95;;;17.30;62.00;;;;;;4918570;29;20024;-82
2023/06/05 06:32:41;;;;;;;4.70;2.70;;;17.30;62.10;;;;;;4918554;29;20430;-82
2023/06/05 06:35:07;;;;;;;10.48;2.88;;;17.40;62.30;;;;;;4917741;29;20036;-82
2023/06/05 06:37:33;;;;;;;5.82;2.50;;;17.40;61.90;;;;;;4901809;29;20059;-82
2023/06/05 06:39:59;;;;;;;8.90;3.28;;;17.50;61.80;;;;;;4916984;29;20091;-82
2023/06/05 06:42:26;;;;;;;7.20;2.38;;;17.50;62.00;;;;;;4918724;29;20036;-82
2023/06/05 06:44:55;;;;;;;8.00;2.85;;;17.60;61.30;;;;;;4937631;29;20030;-82
2023/06/05 06:47:22;;;;;;;6.47;2.47;;;17.60;61.00;;;;;;4937578;29;20091;-82
2023/06/05 06:49:47;;;;;;;7.20;2.75;;;17.70;60.50;;;;;;4919471;29;20051;-82
2023/06/05 06:52:13;;;;;;;7.53;2.88;;;17.70;60.40;;;;;;4922370;29;20487;-82
2023/06/05 06:54:39;;;;;;;5.97;2.60;;;17.80;60.60;;;;;;4923760;29;20028;-82
2023/06/05 06:57:05;;;;;;;6.38;2.67;;;17.90;60.50;;;;;;4922174;29;20036;-82
2023/06/05 06:59:30;;;;;;;8.25;2.90;;;17.90;60.20;;;;;;4904934;29;20084;-82
2023/06/05 07:02:15;;;;;;;5.10;2.47;;;18.00;60.10;;;;;;4915178;29;20033;-82
2023/06/05 07:04:43;;;;;;;5.57;2.60;;;18.20;59.50;;;;;;4932841;29;20543;-82
2023/06/05 07:07:16;;;;;;;8.05;2.50;;;18.20;59.40;;;;;;4939710;29;20118;-82
2023/06/05 07:09:43;;;;;;;8.10;3.00;;;18.20;59.80;;;;;;4939492;29;20028;-82
2023/06/05 07:12:10;;;;;;;9.77;3.15;;;18.30;59.30;;;;;;4922598;29;20526;-82
2023/06/05 07:14:36;;;;;;;7.68;3.15;;;18.30;59.50;;;;;;4922109;29;20063;-82
2023/06/05 07:17:02;;;;;;;5.63;2.75;;;18.40;59.40;;;;;;4920907;29;20036;-81
2023/06/05 07:19:31;;;;;;;6.35;2.63;;;18.50;59.10;;;;;;4921155;29;20024;-81
2023/06/05 07:21:58;;;;;;;9.85;3.10;;;18.60;58.60;;;;;;4933490;29;20118;-81
2023/06/05 07:24:28;;;;;;;6.45;2.42;;;18.70;58.90;;;;;;4939884;29;20028;-81
2023/06/05 07:26:57;;;;;;;7.20;2.40;;;18.80;58.60;;;;;;4941019;29;20020;-81
2023/06/05 07:29:23;;;;;;;7.40;2.47;;;18.90;58.40;;;;;;4922058;29;20028;-79
2023/06/05 07:31:50;;;;;;;7.93;2.33;;;19.20;57.50;;;;;;4932367;29;20060;-82
2023/06/05 07:34:18;;;;;;;6.18;2.45;;;19.80;56.20;;;;;;4932420;29;20036;-82
2023/06/05 07:36:45;;;;;;;5.82;2.63;;;20.30;54.60;;;;;;4931707;29;20024;-83
2023/06/05 07:39:12;;;;;;;6.13;2.60;;;21.10;53.00;;;;;;4937005;29;20600;-83
2023/06/05 07:41:39;;;;;;;5.80;2.60;;;22.00;50.50;;;;;;4937251;29;20051;-83
2023/06/05 07:44:12;;;;;;;4.80;2.33;;;23.40;47.00;;;;;;4938263;29;20399;-83
2023/06/05 07:46:45;;;;;;;6.50;2.70;;;25.10;44.40;;;;;;4932658;29;20028;-83
2023/06/05 07:49:11;;;;;;;7.60;3.08;;;28.20;39.10;;;;;;4936839;29;21161;-84
2023/06/05 07:51:37;;;;;;;5.95;2.92;;;30.40;34.70;;;;;;4930694;29;20034;-84
2023/06/05 07:54:07;;;;;;;6.05;2.60;;;32.30;32.00;;;;;;4939036;29;20088;-82
2023/06/05 07:56:33;;;;;;;7.72;2.97;;;33.40;30.10;;;;;;4933207;29;20035;-81
2023/06/05 07:59:03;;;;;;;8.10;2.95;;;34.40;28.00;;;;;;4936913;29;20036;-82
2023/06/05 08:01:30;;;;;;;6.35;2.95;;;35.20;27.70;;;;;;4921119;29;20055;-79
2023/06/05 08:03:56;;;;;;;6.28;3.17;;;35.80;26.40;;;;;;4912659;29;20118;-79
2023/06/05 08:06:24;;;;;;;8.38;3.15;;;36.30;25.40;;;;;;4920928;29;20047;-79
2023/06/05 08:08:50;;;;;;;5.03;3.00;;;36.80;24.90;;;;;;4935010;29;20032;-79
2023/06/05 08:11:16;;;;;;;7.00;3.33;;;37.00;24.60;;;;;;4935473;29;20032;-79
2023/06/05 08:13:42;;;;;;;5.75;3.10;;;37.20;24.50;;;;;;4938390;29;20046;-79
2023/06/05 08:16:08;;;;;;;6.22;3.30;;;37.60;24.00;;;;;;4920915;29;20056;-79
2023/06/05 08:18:33;;;;;;;7.45;2.95;;;37.80;24.10;;;;;;4932209;29;20032;-79
2023/06/05 08:20:59;;;;;;;6.13;3.30;;;37.90;23.90;;;;;;4931211;29;20028;-79
2023/06/05 08:23:26;;;;;;;5.53;3.10;;;38.10;23.40;;;;;;4936990;29;20418;-79
2023/06/05 08:25:51;;;;;;;6.75;3.25;;;38.30;23.00;;;;;;4928286;29;20039;-79
2023/06/05 08:28:17;;;;;;;5.50;3.13;;;38.40;23.10;;;;;;4938284;29;20028;-79
2023/06/05 08:30:44;;;;;;;6.38;3.15;;;38.30;23.80;;;;;;4930726;29;20048;-79
2023/06/05 08:33:10;;;;;;;5.95;3.20;;;38.60;23.10;;;;;;4936491;29;20027;-79
2023/06/05 08:35:35;;;;;;;7.90;3.47;;;38.50;23.10;;;;;;4934873;29;20032;-79
2023/06/05 08:38:03;;;;;;;5.72;2.97;;;38.50;23.70;;;;;;4937085;29;20036;-79
2023/06/05 08:40:29;;;;;;;6.85;3.10;;;38.40;23.50;;;;;;4927721;29;20057;-79
2023/06/05 08:42:56;;;;;;;5.82;3.15;;;38.30;23.50;;;;;;4938356;29;20027;-79
2023/06/05 08:45:22;;;;;;;5.18;3.20;;;38.20;23.60;;;;;;4937565;29;20047;-79
2023/06/05 08:47:51;;;;;;;6.40;3.08;;;38.10;23.70;;;;;;4937612;29;20034;-79
2023/06/05 08:50:17;;;;;;;8.43;3.40;;;38.20;23.80;;;;;;4932825;29;20114;-79
2023/06/05 08:52:45;;;;;;;4.97;3.00;;;38.40;23.80;;;;;;4934144;29;20059;-79
2023/06/05 08:55:11;;;;;;;7.22;3.05;;;38.60;23.90;;;;;;4935813;29;20420;-79
2023/06/05 08:57:41;;;;;;;4.50;3.10;;;38.70;23.30;;;;;;4933867;29;20046;-79
2023/06/05 09:00:10;;;;;;;5.47;2.83;;;38.70;23.40;;;;;;4934745;29;20040;-78
2023/06/05 09:02:46;;;;;;;6.70;3.17;;;38.80;22.90;;;;;;4935386;29;20039;-79
2023/06/05 09:05:16;;;;;;;6.53;3.20;;;39.00;23.70;;;;;;4929339;29;20024;-79
2023/06/05 09:07:42;;;;;;;5.57;3.05;;;39.10;23.10;;;;;;4937077;29;20038;-79
2023/06/05 09:10:25;;;;;;;5.13;3.40;;;39.30;22.90;;;;;;4935986;29;20024;-79
2023/06/05 09:12:59;;;;;;;5.75;3.05;;;39.10;23.40;;;;;;4936519;29;20078;-79
2023/06/05 09:15:28;;;;;;;7.15;3.53;;;39.30;23.30;;;;;;4926138;29;20032;-79
2023/06/05 09:18:10;;;;;;;6.40;3.30;;;39.30;22.80;;;;;;4902922;29;20024;-79
2023/06/05 09:20:41;;;;;;;7.10;3.20;;;39.30;23.20;;;;;;4925982;29;20062;-79
2023/06/05 09:23:24;;;;;;;6.43;3.42;;;39.30;23.00;;;;;;4914748;29;20032;-79
2023/06/05 09:25:50;;;;;;;6.32;3.38;;;39.40;23.10;;;;;;4928458;29;20103;-79
2023/06/05 09:28:17;;;;;;;5.95;3.47;;;39.60;23.30;;;;;;4937184;29;20032;-79
2023/06/05 09:31:02;;;;;;;6.97;3.42;;;39.80;22.90;;;;;;4923370;29;20049;-79
2023/06/05 09:33:35;;;;;;;5.95;3.42;;;40.00;22.70;;;;;;4905013;29;20031;-79
2023/06/05 09:36:03;;;;;;;6.82;3.28;;;40.30;22.40;;;;;;4891215;29;20526;-79
2023/06/05 09:38:30;;;;;;;6.72;3.67;;;40.30;21.80;;;;;;4908963;29;20023;-78
2023/06/05 09:41:07;;;;;;;5.35;3.40;;;40.20;22.20;;;;;;4915098;29;20043;-78
2023/06/05 09:43:33;;;;;;;5.88;3.25;;;40.20;21.60;;;;;;4921409;29;20486;-78
2023/06/05 09:46:10;;;;;;;6.57;3.50;;;40.20;22.00;;;;;;4938472;29;20112;-78
2023/06/05 09:48:36;;;;;;;5.10;3.35;;;40.10;22.30;;;;;;4923294;29;20483;-78
2023/06/05 09:51:17;;;;;;;5.63;3.53;;;40.00;22.80;;;;;;4900146;29;20028;-78
2023/06/05 09:53:50;;;;;;;5.75;3.53;;;40.10;22.20;;;;;;4900423;29;20076;-78
2023/06/05 09:56:18;;;;;;;6.00;3.53;;;40.00;22.30;;;;;;4901105;29;20047;-80
2023/06/05 09:58:48;;;;;;;6.03;3.38;;;40.00;22.60;;;;;;4901416;29;20487;-80
2023/06/05 10:01:24;;;;;;;5.32;3.30;;;40.20;22.60;;;;;;4917618;29;20052;-80
2023/06/05 10:04:04;;;;;;;5.00;3.28;;;40.20;23.20;;;;;;4930855;29;20385;-80
2023/06/05 10:06:32;;;;;;;4.95;3.50;;;40.10;22.00;;;;;;4925160;29;20028;-80
2023/06/05 10:09:00;;;;;;;4.55;3.55;;;39.80;21.30;;;;;;4918893;29;20058;-80
2023/06/05 10:11:26;;;;;;;7.00;3.40;;;39.50;22.60;;;;;;4921009;29;20027;-81
2023/06/05 10:13:53;;;;;;;7.25;3.85;;;39.40;21.90;;;;;;4910913;29;20389;-80
2023/06/05 10:16:20;;;;;;;5.70;3.35;;;39.00;21.80;;;;;;4901872;29;20020;-81
2023/06/05 10:18:47;;;;;;;5.18;3.40;;;38.80;22.60;;;;;;4907651;29;20039;-80
2023/06/05 10:21:18;;;;;;;6.70;4.00;;;38.70;22.60;;;;;;4920179;29;20036;-81
2023/06/05 10:23:58;;;;;;;5.03;3.13;;;38.50;22.80;;;;;;4918068;29;20035;-81
2023/06/05 10:26:58;;;;;;;5.53;3.40;;;38.20;23.90;;;;;;4916211;29;20028;-81
2023/06/05 10:29:27;;;;;;;5.65;3.05;;;37.90;23.50;;;;;;4926240;29;20035;-80
2023/06/05 10:32:03;;;;;;;4.97;3.10;;;37.70;23.60;;;;;;4928589;29;20044;-80
2023/06/05 10:34:50;;;;;;;5.57;2.80;;;37.10;24.00;;;;;;4953405;29;20562;-81
2023/06/05 10:37:34;;;;;;;6.60;2.90;;;36.80;24.30;;;;;;4934440;29;20032;-80
2023/06/05 10:40:00;;;;;;;5.60;2.55;;;35.70;25.60;;;;;;4943807;29;20065;-79
2023/06/05 10:42:27;;;;;;;6.50;2.53;;;35.10;26.70;;;;;;4920594;29;20131;-80
2023/06/05 10:44:53;;;;;;;5.00;2.38;;;34.60;27.30;;;;;;4931699;29;20461;-80
2023/06/05 10:47:33;;;;;;;5.70;3.00;;;34.20;27.60;;;;;;4926418;29;20027;-81
2023/06/05 10:50:18;;;;;;;5.78;2.70;;;33.40;27.40;;;;;;4925920;29;20140;-81
2023/06/05 10:52:48;;;;;;;5.10;2.40;;;32.80;28.80;;;;;;4934724;29;20127;-80
2023/06/05 10:55:17;;;;;;;5.45;2.70;;;32.70;29.30;;;;;;4939950;29;21089;-80
2023/06/05 10:58:01;;;;;;;6.70;2.65;;;32.60;29.50;;;;;;4933201;29;20083;-80
2023/06/05 11:00:31;;;;;;;5.45;2.72;;;32.40;30.20;;;;;;4938267;29;20091;-80
2023/06/05 11:02:57;;;;;;;5.68;2.35;;;32.20;29.20;;;;;;4931794;29;20031;-80
2023/06/05 11:05:23;;;;;;;7.07;2.70;;;32.00;30.40;;;;;;4936198;29;20034;-80
2023/06/05 11:08:17;;;;;;;5.47;2.55;;;31.90;30.30;;;;;;4940012;29;20020;-80
2023/06/05 11:11:09;;;;;;;7.63;2.72;;;31.80;30.50;;;;;;4947807;28;20032;-80
2023/06/05 11:13:54;;;;;;;5.20;2.50;;;31.80;30.80;;;;;;4954734;29;20371;-80
2023/06/05 11:16:36;;;;;;;8.93;2.72;;;31.30;30.00;;;;;;4939897;29;20455;-80
2023/06/05 11:19:35;;;;;;;5.72;2.83;;;31.20;31.10;;;;;;4935512;29;20196;-80
2023/06/05 11:22:13;;;;;;;4.43;2.70;;;31.20;30.40;;;;;;4939097;28;20028;-80
2023/06/05 11:24:38;;;;;;;5.55;2.65;;;30.90;30.60;;;;;;4939378;29;20585;-80
2023/06/05 11:27:08;;;;;;;5.30;2.40;;;30.90;31.10;;;;;;4933706;29;20021;-80
2023/06/05 11:29:34;;;;;;;4.40;2.53;;;30.90;31.70;;;;;;4955502;29;20030;-81
2023/06/05 11:32:10;;;;;;;7.35;2.30;;;30.90;30.40;;;;;;4926258;29;20103;-81
2023/06/05 11:34:36;;;;;;;6.40;2.83;;;30.90;31.40;;;;;;4910023;29;20493;-80
2023/06/05 11:37:21;;;;;;;6.18;3.00;;;30.80;31.20;;;;;;4909336;29;20027;-80
2023/06/05 11:39:47;;;;;;;6.38;2.75;;;30.70;31.40;;;;;;4921777;29;20028;-80
2023/06/05 11:42:22;;;;;;;4.18;2.47;;;30.80;31.80;;;;;;4921645;29;20590;-79
2023/06/05 11:44:47;;;;;;;7.25;2.80;;;30.80;31.80;;;;;;4921485;29;20020;-82
2023/06/05 11:47:23;;;;;;;5.78;2.70;;;30.80;31.30;;;;;;4920320;29;20395;-78
2023/06/05 11:49:49;;;;;;;4.82;2.80;;;30.80;31.50;;;;;;4921412;29;20036;-80
2023/06/05 11:52:22;;;;;;;5.45;2.58;;;30.60;31.00;;;;;;4921197;29;20022;-81
2023/06/05 11:55:05;;;;;;;5.90;2.50;;;30.40;32.00;;;;;;4908163;29;20613;-81
2023/06/05 11:57:57;;;;;;;5.20;2.72;;;30.60;32.60;;;;;;4926720;29;20023;-81
2023/06/05 12:00:24;;;;;;;6.13;2.92;;;30.60;31.80;;;;;;4904797;29;20099;-81
2023/06/05 12:02:49;;;;;;;5.68;2.83;;;30.50;31.70;;;;;;4928572;29;20060;-80
2023/06/05 12:05:15;;;;;;;4.95;2.60;;;30.60;31.70;;;;;;4920006;29;20040;-81
2023/06/05 12:07:41;;;;;;;7.68;3.20;;;30.40;32.40;;;;;;4920829;29;20582;-81
2023/06/05 12:10:08;;;;;;;4.68;2.75;;;30.30;33.80;;;;;;4920129;29;20028;-81
2023/06/05 12:12:54;;;;;;;6.05;3.03;;;30.30;33.50;;;;;;4923271;29;20028;-81
2023/06/05 12:15:20;;;;;;;7.95;3.22;;;30.30;33.20;;;;;;4926684;29;20038;-81
2023/06/05 12:17:53;;;;;;;7.40;2.85;;;30.50;33.20;;;;;;4920630;29;20042;-81
2023/06/05 12:20:19;;;;;;;;;;;30.40;33.10;;;;;;4921195;29;20558;-82
2023/06/05 12:22:45;;;;;;;7.45;2.85;;;30.40;33.50;;;;;;4903938;29;19914;-81
2023/06/05 12:25:21;;;;;;;6.60;3.03;;;30.40;33.90;;;;;;4919654;29;20039;-81
2023/06/05 12:27:48;;;;;;;5.50;3.13;;;30.30;32.60;;;;;;4920558;29;20036;-81
2023/06/05 12:30:16;;;;;;;6.10;3.05;;;30.10;32.80;;;;;;4919685;29;20581;-81
2023/06/05 12:32:45;;;;;;;4.90;2.95;;;30.10;33.20;;;;;;4920274;29;20087;-81
2023/06/05 12:35:24;;;;;;;5.13;2.72;;;30.20;33.10;;;;;;4903244;29;20032;-83
2023/06/05 12:37:51;;;;;;;5.47;2.80;;;30.30;33.30;;;;;;4919207;29;20040;-81
2023/06/05 12:40:20;;;;;;;5.63;2.80;;;30.30;33.20;;;;;;4920495;29;20048;-82
2023/06/05 12:42:48;;;;;;;5.00;3.08;;;30.30;32.40;;;;;;4921953;29;20024;-82
2023/06/05 12:45:14;;;;;;;4.60;3.10;;;30.30;32.40;;;;;;4926177;29;20020;-82
2023/06/05 12:47:42;;;;;;;6.57;3.00;;;30.30;32.60;;;;;;4920146;29;20028;-82
2023/06/05 12:50:11;;;;;;;4.82;2.72;;;30.30;31.70;;;;;;4918883;29;20023;-82
2023/06/05 12:52:38;;;;;;;7.93;3.28;;;30.20;31.90;;;;;;4903491;29;20028;-82
2023/06/05 12:55:05;;;;;;;6.13;3.42;;;30.20;33.30;;;;;;4930155;29;20060;-82
2023/06/05 12:57:32;;;;;;;7.25;3.13;;;30.20;32.40;;;;;;4939034;29;20024;-82
2023/06/05 12:59:58;;;;;;;6.50;3.40;;;30.30;33.10;;;;;;4921973;29;20032;-82
2023/06/05 13:02:24;;;;;;;5.20;3.00;;;30.30;32.40;;;;;;4915187;29;20475;-82
2023/06/05 13:04:50;;;;;;;6.47;3.20;;;30.20;33.30;;;;;;4902792;29;20544;-83
2023/06/05 13:07:16;;;;;;;5.68;3.00;;;30.00;31.90;;;;;;4918894;29;20055;-82
2023/06/05 13:09:42;;;;;;;7.78;3.13;;;29.90;32.00;;;;;;4919959;29;20051;-82
2023/06/05 13:12:08;;;;;;;5.20;2.83;;;29.90;33.00;;;;;;4919917;29;20632;-81
2023/06/05 13:14:34;;;;;;;5.95;2.75;;;29.90;32.90;;;;;;4918427;29;20082;-81
2023/06/05 13:17:00;;;;;;;5.38;2.88;;;29.80;32.70;;;;;;4910532;29;20040;-81
2023/06/05 13:19:26;;;;;;;5.65;2.85;;;29.80;31.80;;;;;;4904393;29;20036;-82
2023/06/05 13:21:52;;;;;;;5.15;2.92;;;29.80;32.30;;;;;;4919541;29;20031;-81
2023/06/05 13:24:18;;;;;;;5.30;2.83;;;29.80;32.90;;;;;;4918719;29;20024;-82
2023/06/05 13:26:46;;;;;;;5.13;3.45;;;29.90;33.50;;;;;;4919637;29;20779;-82
2023/06/05 13:29:13;;;;;;;5.45;3.00;;;29.90;32.70;;;;;;4920741;29;20071;-81
2023/06/05 13:31:39;;;;;;;4.97;2.78;;;30.00;32.30;;;;;;4944025;29;20055;-81
2023/06/05 13:34:05;;;;;;;5.30;2.97;;;30.00;33.30;;;;;;4928055;28;20495;-81
2023/06/05 13:36:31;;;;;;;5.03;2.70;;;29.60;32.50;;;;;;4924024;29;20079;-81
2023/06/05 13:38:57;;;;;;;5.88;2.80;;;29.40;32.60;;;;;;4953311;29;20036;-81
2023/06/05 13:41:23;;;;;;;6.45;2.80;;;29.60;33.80;;;;;;4938285;29;20023;-81
2023/06/05 13:43:48;;;;;;;5.82;2.67;;;29.70;32.70;;;;;;4924243;29;20641;-82
2023/06/05 13:46:15;;;;;;;7.00;3.00;;;29.80;33.20;;;;;;4919593;29;20028;-82
2023/06/05 13:48:41;;;;;;;4.93;2.80;;;29.90;32.60;;;;;;4917833;29;20087;-82
2023/06/05 13:51:06;;;;;;;4.70;2.70;;;29.90;33.20;;;;;;4918100;29;20038;-81
2023/06/05 13:53:34;;;;;;;5.85;3.05;;;29.70;33.60;;;;;;4924943;29;20063;-83
2023/06/05 13:56:04;;;;;;;5.47;3.20;;;29.70;33.30;;;;;;4937300;29;20100;-82
2023/06/05 13:58:31;;;;;;;7.82;3.38;;;29.80;33.20;;;;;;4933261;29;20036;-82
2023/06/05 14:00:57;;;;;;;5.90;3.10;;;29.90;33.30;;;;;;4938237;29;20042;-83
2023/06/05 14:03:23;;;;;;;5.80;3.50;;;30.10;33.40;;;;;;4948837;29;20036;-83
2023/06/05 14:05:49;;;;;;;6.30;3.22;;;30.10;34.00;;;;;;4917718;29;20024;-84
2023/06/05 14:08:15;;;;;;;7.20;3.30;;;30.10;33.50;;;;;;4917975;29;20296;-82
2023/06/05 14:10:41;;;;;;;5.45;3.22;;;30.10;32.20;;;;;;4917273;29;20101;-83
2023/06/05 14:13:06;;;;;;;7.82;3.13;;;30.00;32.50;;;;;;4932028;29;20035;-83
2023/06/05 14:15:33;;;;;;;6.90;3.40;;;29.80;32.40;;;;;;4937955;29;20032;-83
2023/06/05 14:18:04;;;;;;;5.32;3.30;;;29.80;32.60;;;;;;4946802;29;20031;-83
2023/06/05 14:20:30;;;;;;;4.70;3.33;;;30.00;33.40;;;;;;4933454;29;20028;-83
2023/06/05 14:22:57;;;;;;;5.47;3.20;;;30.20;32.30;;;;;;4919048;29;20039;-83
2023/06/05 14:25:25;;;;;;;8.02;3.45;;;30.50;33.00;;;;;;4932901;29;20491;-82
2023/06/05 14:27:56;;;;;;;5.00;3.13;;;30.60;31.70;;;;;;4923017;29;20031;-83
2023/06/05 14:30:22;;;;;;;7.15;3.20;;;30.60;34.00;;;;;;4930854;29;20028;-83
2023/06/05 14:32:48;;;;;;;6.72;3.38;;;30.50;33.50;;;;;;4918841;29;20067;-83
2023/06/05 14:35:16;;;;;;;5.78;3.35;;;29.80;31.90;;;;;;4917716;29;20044;-82
2023/06/05 14:37:42;;;;;;;5.63;3.08;;;29.40;31.50;;;;;;4918111;29;20028;-82
2023/06/05 14:40:09;;;;;;;6.57;3.22;;;29.20;32.40;;;;;;4917321;29;20032;-82
2023/06/05 14:42:35;;;;;;;5.40;3.10;;;29.00;32.30;;;;;;4918522;29;20115;-82
2023/06/05 14:45:01;;;;;;;8.73;3.63;;;28.70;32.70;;;;;;4936294;29;20115;-83
2023/06/05 14:47:26;;;;;;;5.85;3.40;;;28.80;33.90;;;;;;4937547;29;20167;-82
2023/06/05 14:49:52;;;;;;;5.47;3.28;;;28.80;33.10;;;;;;4929460;29;20065;-82
2023/06/05 14:52:18;;;;;;;6.18;3.10;;;28.80;33.40;;;;;;4918754;29;20779;-83
2023/06/05 14:54:43;;;;;;;6.28;3.25;;;29.20;33.50;;;;;;4918787;29;20578;-83
2023/06/05 14:57:09;;;;;;;5.68;3.38;;;29.40;33.00;;;;;;4920427;29;20428;-82
2023/06/05 14:59:35;;;;;;;5.97;3.60;;;29.60;32.80;;;;;;4916495;29;20024;-83
2023/06/05 15:02:01;;;;;;;4.38;2.92;;;29.60;33.30;;;;;;4915954;29;20027;-82
2023/06/05 15:04:27;;;;;;;4.60;3.15;;;29.70;32.80;;;;;;4923894;29;20194;-82
2023/06/05 15:06:53;;;;;;;6.45;3.08;;;29.80;33.00;;;;;;4918240;29;20036;-83
2023/06/05 15:09:22;;;;;;;6.28;3.47;;;29.80;33.10;;;;;;4926377;29;20483;-81
2023/06/05 15:11:49;;;;;;;6.10;3.33;;;29.80;32.50;;;;;;4922547;29;20054;-82
2023/06/05 15:14:16;;;;;;;5.32;3.03;;;29.60;32.20;;;;;;4917390;29;20418;-82
2023/06/05 15:16:41;;;;;;;5.50;3.28;;;29.70;32.70;;;;;;4920167;29;21687;-82
2023/06/05 15:19:07;;;;;;;4.20;2.95;;;29.90;32.60;;;;;;4920908;29;20028;-81
2023/06/05 15:21:33;;;;;;;6.63;3.58;;;30.10;32.30;;;;;;4921073;29;20410;-82
2023/06/05 15:23:58;;;;;;;5.85;2.97;;;30.10;33.20;;;;;;4921305;29;20024;-81
2023/06/05 15:26:24;;;;;;;5.03;3.20;;;29.90;33.20;;;;;;4920453;29;20103;-82
2023/06/05 15:28:50;;;;;;;5.45;3.15;;;29.60;31.70;;;;;;4918220;29;20046;-81
2023/06/05 15:31:16;;;;;;;5.63;3.25;;;29.30;33.20;;;;;;4922223;29;20131;-81
2023/06/05 15:33:41;;;;;;;7.15;3.38;;;28.90;33.40;;;;;;4935131;29;20036;-81
2023/06/05 15:36:07;;;;;;;5.75;2.90;;;28.80;34.20;;;;;;4936167;29;20052;-80
2023/06/05 15:38:33;;;;;;;6.13;3.20;;;28.60;34.10;;;;;;4920050;29;20043;-81
2023/06/05 15:40:58;;;;;;;7.47;3.85;;;28.60;34.30;;;;;;4935031;29;20024;-81
2023/06/05 15:43:24;;;;;;;7.32;3.58;;;28.50;34.50;;;;;;4920163;29;20084;-81
2023/06/05 15:45:51;;;;;;;7.60;3.28;;;28.60;34.50;;;;;;4933677;29;20028;-82
2023/06/05 15:48:21;;;;;;;5.15;2.95;;;28.80;34.50;;;;;;4921212;29;20024;-83
2023/06/05 15:50:47;;;;;;;12.27;3.85;;;29.00;35.10;;;;;;4920202;29;20032;-81
2023/06/05 15:53:14;;;;;;;4.93;2.75;;;29.00;35.10;;;;;;4919213;29;20052;-81
2023/06/05 15:55:40;;;;;;;6.68;2.88;;;28.90;34.40;;;;;;4933415;29;20028;-82
2023/06/05 15:58:08;;;;;;;6.50;3.42;;;29.00;34.60;;;;;;4919116;29;20046;-80
2023/06/05 16:00:34;;;;;;;5.70;3.17;;;29.10;34.40;;;;;;4919814;29;20507;-79
2023/06/05 16:02:59;;;;;;;6.05;3.45;;;29.20;34.20;;;;;;4918473;29;20028;-79
2023/06/05 16:05:25;;;;;;;6.03;3.42;;;29.20;35.20;;;;;;4919009;29;20028;-80
2023/06/05 16:07:51;;;;;;;6.20;3.40;;;29.20;36.30;;;;;;4918676;29;20032;-80
2023/06/05 16:10:18;;;;;;;5.55;2.92;;;29.20;34.30;;;;;;4919338;29;20043;-80
2023/06/05 16:12:43;;;;;;;6.68;3.20;;;29.30;34.30;;;;;;4915076;29;20039;-80
2023/06/05 16:15:09;;;;;;;5.32;2.92;;;29.20;34.30;;;;;;4920264;29;20084;-80
2023/06/05 16:17:35;;;;;;;6.10;3.20;;;29.10;34.10;;;;;;4918346;29;20124;-79
2023/06/05 16:20:01;;;;;;;5.32;3.42;;;29.10;34.20;;;;;;4918744;29;20055;-82
2023/06/05 16:22:26;;;;;;;6.32;3.05;;;29.00;34.30;;;;;;4918632;29;20110;-82
2023/06/05 16:24:52;;;;;;;5.07;3.25;;;28.90;34.80;;;;;;4919625;29;20099;-84
2023/06/05 16:27:21;;;;;;;8.98;3.85;;;29.00;35.10;;;;;;4920141;29;20028;-84
2023/06/05 16:29:47;;;;;;;6.07;3.58;;;29.00;35.60;;;;;;4934870;29;20032;-83
2023/06/05 16:32:13;;;;;;;6.30;3.95;;;28.80;36.10;;;;;;4919764;29;20080;-84
2023/06/05 16:34:42;;;;;;;8.23;3.85;;;28.80;36.80;;;;;;4902920;29;20055;-85
2023/06/05 16:37:08;;;;;;;6.40;4.13;;;28.90;37.60;;;;;;4919042;29;20113;-85
2023/06/05 16:39:33;;;;;;;11.10;4.60;;;28.80;37.70;;;;;;4918261;29;20059;-84
2023/06/05 16:42:01;;;;;;;8.27;4.10;;;28.80;38.50;;;;;;4918647;29;20129;-84
2023/06/05 16:44:30;;;;;;;5.72;4.38;;;28.80;37.90;;;;;;4905036;29;20024;-85
2023/06/05 16:46:56;;;;;;;9.13;4.13;;;28.70;38.10;;;;;;4900851;29;20039;-85
2023/06/05 16:49:22;;;;;;;8.35;4.28;;;28.70;39.10;;;;;;4918392;29;20047;-85
2023/06/05 16:51:47;;;;;;;8.40;4.28;;;28.70;39.00;;;;;;4920845;29;20036;-85
2023/06/05 16:54:14;;;;;;;7.25;4.18;;;28.60;39.50;;;;;;4920047;29;20020;-85
2023/06/05 16:56:41;;;;;;;8.13;4.28;;;28.40;40.00;;;;;;4919013;29;20036;-85
2023/06/05 16:59:15;;;;;;;6.45;4.45;;;28.40;39.40;;;;;;4917484;29;20031;-80
2023/06/05 17:01:40;;;;;;;8.82;4.65;;;28.30;39.50;;;;;;4922767;29;20028;-86
2023/06/05 17:04:09;;;;;;;10.73;4.63;;;28.40;39.60;;;;;;4916813;29;20028;-85
2023/06/05 17:06:35;;;;;;;9.35;5.05;;;28.30;39.80;;;;;;4920870;29;20051;-86
2023/06/05 17:09:01;;;;;;;7.78;4.65;;;28.20;39.90;;;;;;4917824;29;20032;-84
2023/06/05 17:11:27;;;;;;;8.80;4.88;;;28.00;40.30;;;;;;4919300;29;20372;-84
2023/06/05 17:13:53;;;;;;;6.63;4.70;;;27.90;40.10;;;;;;4898777;29;20149;-83
2023/06/05 17:16:18;;;;;;;6.22;4.50;;;27.80;40.50;;;;;;4918242;29;20060;-78
2023/06/05 17:18:44;;;;;;;8.10;4.45;;;27.80;40.50;;;;;;4914846;29;20056;-77
2023/06/05 17:21:10;;;;;;;8.32;4.70;;;27.80;40.50;;;;;;4914718;29;20372;-77
2023/06/05 17:23:37;;;;;;;9.20;4.60;;;27.70;41.00;;;;;;4899260;29;20032;-77
2023/06/05 17:26:03;;;;;;;7.38;4.90;;;27.60;41.10;;;;;;4919674;29;20032;-77